Time;durP1;ratioP1;P1;durP2;ratioP2;P2;SDS_P1;SDS_P2;PMS_P1;PMS_P2;Temp;Humidity;BMP_temperature;BMP_pressure;BME280_temperature;BME280_humidity;BME280_pressure;Samples;Min_cycle;Max_cycle;Signal;HPM_P1;HPM_P2
2023/06/12 00:01:36;;;;;;;1.45;1.35;;;21.10;91.00;;;;;;5096026;28;20433;-51
2023/06/12 00:04:04;;;;;;;1.60;1.30;;;21.10;91.50;;;;;;5095865;28;20860;-49
2023/06/12 00:06:31;;;;;;;2.40;1.60;;;21.10;91.80;;;;;;5094430;28;20468;-52
2023/06/12 00:08:59;;;;;;;2.10;1.40;;;21.10;92.10;;;;;;5095486;28;21495;-52
2023/06/12 00:11:26;;;;;;;1.63;1.23;;;21.10;92.20;;;;;;5096257;28;20494;-51
2023/06/12 00:13:53;;;;;;;1.42;1.20;;;21.10;92.40;;;;;;5096558;28;20430;-51
2023/06/12 00:16:21;;;;;;;1.50;1.23;;;21.00;92.30;;;;;;5096108;28;21159;-52
2023/06/12 00:18:49;;;;;;;1.50;1.20;;;21.00;92.50;;;;;;5095856;28;20429;-51
2023/06/12 00:21:17;;;;;;;1.67;1.30;;;21.00;92.80;;;;;;5096107;28;20512;-48
2023/06/12 00:23:44;;;;;;;1.90;1.20;;;21.00;92.60;;;;;;5096104;28;20934;-46
2023/06/12 00:26:11;;;;;;;2.50;1.40;;;21.00;92.80;;;;;;5096176;28;20707;-49
2023/06/12 00:28:38;;;;;;;1.40;1.10;;;20.90;91.70;;;;;;5095777;28;20825;-51
2023/06/12 00:31:05;;;;;;;1.40;1.30;;;20.90;92.00;;;;;;5095702;28;20980;-52
2023/06/12 00:33:32;;;;;;;1.60;1.20;;;20.90;91.80;;;;;;5095255;28;20418;-50
2023/06/12 00:36:00;;;;;;;1.60;1.10;;;20.80;92.00;;;;;;5096128;28;20753;-52
2023/06/12 00:38:27;;;;;;;2.55;1.20;;;20.90;92.50;;;;;;5094625;28;20426;-53
2023/06/12 00:40:54;;;;;;;2.55;1.10;;;20.90;92.30;;;;;;5095767;28;20856;-51
2023/06/12 00:43:21;;;;;;;1.30;1.20;;;20.90;92.20;;;;;;5095289;28;20784;-48
2023/06/12 00:45:48;;;;;;;1.60;1.20;;;20.90;92.40;;;;;;5094645;28;20780;-51
2023/06/12 00:48:15;;;;;;;1.40;1.20;;;20.90;92.30;;;;;;5093808;28;20438;-53
2023/06/12 00:50:44;;;;;;;1.48;1.10;;;20.90;92.40;;;;;;5094075;28;20426;-48
2023/06/12 00:53:13;;;;;;;1.83;1.10;;;20.90;92.00;;;;;;5093394;28;20466;-50
2023/06/12 00:55:40;;;;;;;1.40;1.10;;;20.90;91.90;;;;;;5093542;28;20864;-49
2023/06/12 00:58:07;;;;;;;1.77;1.20;;;20.80;92.00;;;;;;5093728;28;20421;-52
2023/06/12 01:00:38;;;;;;;1.50;1.20;;;20.80;92.30;;;;;;5094145;28;20421;-51
2023/06/12 01:03:07;;;;;;;1.55;1.20;;;20.80;92.10;;;;;;5095450;28;20453;-47
2023/06/12 01:05:36;;;;;;;1.50;1.20;;;20.90;92.70;;;;;;5095545;28;20921;-49
2023/06/12 01:08:17;;;;;;;1.40;1.10;;;20.90;92.60;;;;;;5095359;28;20445;-47
2023/06/12 01:10:47;;;;;;;1.20;1.10;;;20.90;92.60;;;;;;5095499;28;20426;-47
2023/06/12 01:13:16;;;;;;;1.60;1.10;;;20.90;92.70;;;;;;5095058;28;20895;-49
2023/06/12 01:15:44;;;;;;;1.80;1.10;;;21.00;92.30;;;;;;5094890;28;20455;-50
2023/06/12 01:18:11;;;;;;;1.80;1.50;;;20.90;92.50;;;;;;5095454;28;20500;-52
2023/06/12 01:20:40;;;;;;;1.40;1.20;;;20.80;93.00;;;;;;5095287;28;20422;-48
2023/06/12 01:23:12;;;;;;;2.50;1.10;;;20.70;93.30;;;;;;5095321;28;20902;-47
2023/06/12 01:26:26;;;;;;;1.30;1.00;;;20.60;93.70;;;;;;5094951;28;20430;-47
2023/06/12 01:29:26;;;;;;;1.60;1.20;;;20.50;93.80;;;;;;5077541;28;20495;-49
2023/06/12 01:32:03;;;;;;;1.40;1.10;;;20.50;94.10;;;;;;5094992;28;20478;-53
2023/06/12 01:34:36;;;;;;;1.40;1.10;;;20.40;94.40;;;;;;5095005;28;20430;-52
2023/06/12 01:37:13;;;;;;;1.30;1.10;;;20.40;94.70;;;;;;5094835;28;20463;-49
2023/06/12 01:39:46;;;;;;;1.70;1.10;;;20.40;95.40;;;;;;5094747;28;20429;-51
2023/06/12 01:42:14;;;;;;;1.30;1.10;;;20.40;95.50;;;;;;5093584;28;20702;-49
2023/06/12 01:44:41;;;;;;;1.42;1.10;;;20.40;95.60;;;;;;5095300;28;20429;-47
2023/06/12 01:47:09;;;;;;;1.40;1.10;;;20.40;95.70;;;;;;5094771;28;20491;-52
2023/06/12 01:49:36;;;;;;;1.40;1.10;;;20.40;95.90;;;;;;5094822;28;20426;-50
2023/06/12 01:52:04;;;;;;;1.50;1.20;;;20.50;96.20;;;;;;5095283;28;20468;-50
2023/06/12 01:54:33;;;;;;;2.00;1.30;;;20.50;96.50;;;;;;5095014;28;20841;-47
2023/06/12 01:57:00;;;;;;;1.50;1.20;;;20.50;96.70;;;;;;5095063;28;20424;-49
2023/06/12 01:59:27;;;;;;;1.30;1.10;;;20.50;96.70;;;;;;5093878;28;20612;-51
2023/06/12 02:01:54;;;;;;;1.60;1.20;;;20.50;97.20;;;;;;5092246;28;20494;-52
2023/06/12 02:04:23;;;;;;;2.05;1.20;;;20.50;97.40;;;;;;5092660;28;20475;-52
2023/06/12 02:06:50;;;;;;;1.50;1.20;;;20.50;97.50;;;;;;5096091;28;20429;-52
2023/06/12 02:09:18;;;;;;;1.50;1.30;;;20.40;98.00;;;;;;5095941;28;20908;-50
2023/06/12 02:11:45;;;;;;;1.50;1.27;;;20.30;98.30;;;;;;5095359;28;20426;-48
2023/06/12 02:14:12;;;;;;;3.30;1.20;;;20.20;98.70;;;;;;5095311;28;20495;-49
2023/06/12 02:16:39;;;;;;;1.55;1.20;;;20.20;99.30;;;;;;5097455;28;20507;-49
2023/06/12 02:19:06;;;;;;;1.30;1.20;;;20.10;99.60;;;;;;5098376;28;20414;-50
2023/06/12 02:21:35;;;;;;;1.30;1.20;;;20.10;99.90;;;;;;5098638;28;20913;-51
2023/06/12 02:24:02;;;;;;;2.70;1.20;;;20.00;99.90;;;;;;5098191;28;20509;-52
2023/06/12 02:26:29;;;;;;;1.70;1.20;;;20.00;99.90;;;;;;5098437;28;20439;-48
2023/06/12 02:29:10;;;;;;;1.40;1.30;;;20.00;99.90;;;;;;5098328;28;20609;-50
2023/06/12 02:31:37;;;;;;;3.22;1.17;;;19.90;99.90;;;;;;5098245;28;20467;-46
2023/06/12 02:34:05;;;;;;;1.40;1.20;;;20.00;99.90;;;;;;5097766;28;20482;-47
2023/06/12 02:36:39;;;;;;;2.33;1.20;;;19.90;99.90;;;;;;5098458;28;20418;-48
2023/06/12 02:39:07;;;;;;;1.80;1.27;;;19.80;99.90;;;;;;5097823;28;20436;-49
2023/06/12 02:41:34;;;;;;;2.00;1.30;;;19.80;99.90;;;;;;5096543;28;20430;-51
2023/06/12 02:44:01;;;;;;;1.50;1.20;;;19.70;99.90;;;;;;5097539;28;20482;-48
2023/06/12 02:46:27;;;;;;;1.80;1.20;;;19.70;99.90;;;;;;5097960;28;20483;-45
2023/06/12 02:48:54;;;;;;;1.60;1.30;;;19.70;99.90;;;;;;5097645;28;20795;-47
2023/06/12 02:51:21;;;;;;;2.00;1.10;;;19.60;99.90;;;;;;5097598;28;20498;-50
2023/06/12 02:53:50;;;;;;;1.58;1.30;;;19.60;99.90;;;;;;5097623;28;20429;-48
2023/06/12 02:56:17;;;;;;;1.48;1.25;;;19.60;99.90;;;;;;5097865;28;20483;-50
2023/06/12 02:58:44;;;;;;;1.38;1.20;;;19.60;99.90;;;;;;5097049;28;20568;-50
2023/06/12 03:01:12;;;;;;;1.50;1.30;;;19.50;99.90;;;;;;5096290;28;20420;-52
2023/06/12 03:03:39;;;;;;;2.08;1.30;;;19.50;99.90;;;;;;5096255;28;20418;-49
2023/06/12 03:06:07;;;;;;;1.70;1.30;;;19.40;99.90;;;;;;5097071;28;20430;-50
2023/06/12 03:08:34;;;;;;;1.60;1.20;;;19.40;99.90;;;;;;5096495;28;20476;-47
2023/06/12 03:11:02;;;;;;;1.77;1.20;;;19.40;99.90;;;;;;5096319;28;20708;-52
2023/06/12 03:13:29;;;;;;;1.60;1.30;;;19.40;99.90;;;;;;5096466;28;20482;-48
2023/06/12 03:15:57;;;;;;;1.90;1.20;;;19.40;99.90;;;;;;5096576;28;20414;-49
2023/06/12 03:18:24;;;;;;;1.70;1.20;;;19.40;99.90;;;;;;5097387;28;20429;-55
2023/06/12 03:20:51;;;;;;;3.42;1.40;;;19.30;99.90;;;;;;5096544;28;20429;-52
2023/06/12 03:23:18;;;;;;;1.70;1.20;;;19.30;99.90;;;;;;5095236;28;20425;-49
2023/06/12 03:25:47;;;;;;;1.60;1.20;;;19.20;99.90;;;;;;5093867;28;20457;-50
2023/06/12 03:28:15;;;;;;;1.40;1.20;;;19.20;99.90;;;;;;5092741;28;20434;-50
2023/06/12 03:30:42;;;;;;;1.85;1.23;;;19.20;99.90;;;;;;5094321;28;20414;-50
2023/06/12 03:33:10;;;;;;;1.73;1.20;;;19.20;99.90;;;;;;5093187;28;20434;-50
2023/06/12 03:35:37;;;;;;;1.58;1.30;;;19.20;99.90;;;;;;5093574;28;20903;-52
2023/06/12 03:38:04;;;;;;;1.50;1.20;;;19.20;99.90;;;;;;5094210;28;20422;-51
2023/06/12 03:40:31;;;;;;;2.72;1.40;;;19.20;99.90;;;;;;5096275;28;20432;-51
2023/06/12 03:42:58;;;;;;;2.00;1.48;;;19.20;99.90;;;;;;5096309;28;20425;-50
2023/06/12 03:45:26;;;;;;;2.65;1.40;;;19.10;99.90;;;;;;5097003;28;20699;-48
2023/06/12 03:47:53;;;;;;;3.65;1.58;;;19.10;99.90;;;;;;5097129;28;20858;-46
2023/06/12 03:50:22;;;;;;;2.20;1.30;;;19.00;99.90;;;;;;5096727;28;20421;-51
2023/06/12 03:52:49;;;;;;;1.60;1.15;;;18.90;99.90;;;;;;5096376;28;20434;-53
2023/06/12 03:55:16;;;;;;;1.80;1.30;;;18.90;99.90;;;;;;5096349;28;20902;-53
2023/06/12 03:57:43;;;;;;;1.90;1.40;;;18.90;99.90;;;;;;5096601;28;20768;-53
2023/06/12 04:00:11;;;;;;;2.00;1.30;;;18.90;99.90;;;;;;5096466;28;20430;-47
2023/06/12 04:02:40;;;;;;;1.80;1.23;;;19.00;99.90;;;;;;5096688;28;20501;-48
2023/06/12 04:05:08;;;;;;;2.03;1.40;;;18.90;99.90;;;;;;5096161;28;20422;-52
2023/06/12 04:07:36;;;;;;;1.75;1.30;;;18.90;99.90;;;;;;5095942;28;20857;-52
2023/06/12 04:10:04;;;;;;;1.60;1.40;;;18.90;1.00;;;;;;5095224;28;20635;-51
2023/06/12 04:12:31;;;;;;;2.22;1.50;;;18.80;99.90;;;;;;5095667;28;20713;-50
2023/06/12 04:14:58;;;;;;;1.90;1.40;;;18.90;1.00;;;;;;5094538;28;20430;-52
2023/06/12 04:17:25;;;;;;;1.80;1.30;;;18.70;1.00;;;;;;5093786;28;20421;-53
2023/06/12 04:19:55;;;;;;;4.85;1.50;;;18.70;1.00;;;;;;5092282;28;21036;-51
2023/06/12 04:22:22;;;;;;;2.60;1.40;;;18.80;1.00;;;;;;5092002;28;20426;-49
2023/06/12 04:24:49;;;;;;;1.50;1.30;;;18.80;1.00;;;;;;5090183;28;20826;-52
2023/06/12 04:27:16;;;;;;;3.30;1.50;;;18.90;1.00;;;;;;5094869;28;20723;-51
2023/06/12 04:29:43;;;;;;;3.40;1.40;;;18.90;99.90;;;;;;5095305;28;20429;-47
2023/06/12 04:32:13;;;;;;;1.60;1.48;;;19.00;99.90;;;;;;5094112;28;20435;-54
2023/06/12 04:34:41;;;;;;;1.90;1.30;;;19.00;99.90;;;;;;5093604;28;20432;-51
2023/06/12 04:37:11;;;;;;;2.30;1.42;;;19.10;99.90;;;;;;5090755;28;20421;-51
2023/06/12 04:39:38;;;;;;;2.20;1.20;;;19.10;99.90;;;;;;5092508;28;20418;-47
2023/06/12 04:42:07;;;;;;;1.60;1.40;;;19.10;99.90;;;;;;5093127;28;20779;-53
2023/06/12 04:44:34;;;;;;;1.50;1.30;;;19.20;99.90;;;;;;5093783;28;20731;-52
2023/06/12 04:47:04;;;;;;;1.88;1.30;;;19.20;99.90;;;;;;5094270;28;20502;-54
2023/06/12 04:49:33;;;;;;;1.60;1.40;;;19.30;99.90;;;;;;5093607;28;20546;-52
2023/06/12 04:52:02;;;;;;;1.70;1.40;;;19.40;99.90;;;;;;5094369;28;20504;-52
2023/06/12 04:54:35;;;;;;;2.40;1.60;;;19.40;99.90;;;;;;5093333;28;20449;-50
2023/06/12 04:57:03;;;;;;;1.80;1.50;;;19.50;99.90;;;;;;5092422;28;20531;-50
2023/06/12 04:59:37;;;;;;;2.00;1.45;;;19.50;99.90;;;;;;5091531;28;20422;-54
2023/06/12 05:02:04;;;;;;;2.15;1.70;;;19.50;99.90;;;;;;5089405;28;20503;-46
2023/06/12 05:04:32;;;;;;;2.10;1.40;;;19.60;99.90;;;;;;5091374;28;20837;-47
2023/06/12 05:07:03;;;;;;;2.78;1.70;;;19.60;99.90;;;;;;5090898;28;20837;-51
2023/06/12 05:09:31;;;;;;;3.80;1.70;;;19.60;99.90;;;;;;5090463;28;20803;-53
2023/06/12 05:12:00;;;;;;;2.35;1.40;;;19.60;99.90;;;;;;5091619;28;20433;-51
2023/06/12 05:14:28;;;;;;;2.70;1.90;;;19.60;99.90;;;;;;5091205;28;20430;-51
2023/06/12 05:16:55;;;;;;;2.07;1.40;;;19.70;99.90;;;;;;5090304;28;20429;-48
2023/06/12 05:19:22;;;;;;;1.70;1.40;;;19.80;99.90;;;;;;5091654;28;20449;-49
2023/06/12 05:21:50;;;;;;;2.17;1.40;;;19.80;99.90;;;;;;5093485;28;20433;-49
2023/06/12 05:24:17;;;;;;;2.10;1.60;;;19.70;99.90;;;;;;5093219;28;20638;-51
2023/06/12 05:26:46;;;;;;;2.42;1.70;;;19.70;99.90;;;;;;5094572;28;20499;-53
2023/06/12 05:29:13;;;;;;;2.20;1.60;;;19.70;99.90;;;;;;5093216;28;20866;-51
2023/06/12 05:31:40;;;;;;;2.70;1.75;;;19.60;99.90;;;;;;5092399;28;20865;-50
2023/06/12 05:34:07;;;;;;;2.50;1.60;;;19.60;99.90;;;;;;5091223;28;20668;-51
2023/06/12 05:36:37;;;;;;;1.70;1.40;;;19.70;99.90;;;;;;5090491;28;20857;-47
2023/06/12 05:39:04;;;;;;;2.80;1.80;;;19.80;99.90;;;;;;5091292;28;20780;-48
2023/06/12 05:41:31;;;;;;;3.45;1.83;;;19.90;99.90;;;;;;5094346;28;20537;-50
2023/06/12 05:43:59;;;;;;;1.60;1.40;;;19.90;99.90;;;;;;5093974;28;20475;-50
2023/06/12 05:46:26;;;;;;;2.55;1.50;;;20.00;99.90;;;;;;5093932;28;20429;-48
2023/06/12 05:48:57;;;;;;;2.00;1.70;;;20.00;99.90;;;;;;5091780;28;20765;-51
2023/06/12 05:51:24;;;;;;;1.92;1.50;;;20.10;99.90;;;;;;5090299;28;20436;-52
2023/06/12 05:53:51;;;;;;;1.50;1.30;;;20.10;99.90;;;;;;5091737;28;20426;-53
2023/06/12 05:56:18;;;;;;;2.20;1.70;;;20.20;99.90;;;;;;5091665;28;20426;-49
2023/06/12 05:58:45;;;;;;;2.30;1.70;;;20.30;99.90;;;;;;5091860;28;20478;-53
2023/06/12 06:01:16;;;;;;;3.10;1.50;;;20.40;99.90;;;;;;5090783;28;20660;-50
2023/06/12 06:03:45;;;;;;;2.45;1.70;;;20.50;99.90;;;;;;5092252;28;20876;-51
2023/06/12 06:06:13;;;;;;;1.60;1.30;;;20.60;99.90;;;;;;5094667;28;20425;-54
2023/06/12 06:08:40;;;;;;;2.50;1.50;;;20.50;99.90;;;;;;5095118;28;20438;-52
2023/06/12 06:11:08;;;;;;;2.20;1.50;;;20.60;99.90;;;;;;5102678;28;20525;-52
2023/06/12 06:13:35;;;;;;;1.83;1.33;;;20.70;99.90;;;;;;5114682;28;20424;-53
2023/06/12 06:16:02;;;;;;;2.80;1.60;;;20.70;99.90;;;;;;5101200;28;20437;-50
2023/06/12 06:18:31;;;;;;;1.73;1.50;;;20.80;75.50;;;;;;5096561;28;20406;-53
2023/06/12 06:20:58;;;;;;;3.90;3.08;;;20.90;83.00;;;;;;5096144;28;20429;-53
2023/06/12 06:23:25;;;;;;;2.00;1.70;;;20.90;87.50;;;;;;5096547;28;20560;-50
2023/06/12 06:25:52;;;;;;;3.07;1.90;;;20.90;43.80;;;;;;5094930;28;20465;-50
2023/06/12 06:28:19;;;;;;;2.30;1.60;;;21.00;68.10;;;;;;5094320;28;20429;-55
2023/06/12 06:30:46;;;;;;;1.80;1.60;;;21.10;54.70;;;;;;5094875;28;20478;-55
2023/06/12 06:33:13;;;;;;;1.88;1.55;;;21.10;36.20;;;;;;5099775;28;20436;-54
2023/06/12 06:35:41;;;;;;;2.45;1.90;;;21.20;25.40;;;;;;5101232;28;20438;-54
2023/06/12 06:38:08;;;;;;;2.00;1.90;;;21.30;23.80;;;;;;5094181;28;21044;-54
2023/06/12 06:40:37;;;;;;;2.80;2.10;;;21.30;11.60;;;;;;5091904;28;20460;-53
2023/06/12 06:43:04;;;;;;;2.55;1.60;;;21.20;11.30;;;;;;5093111;28;20431;-53
2023/06/12 06:45:32;;;;;;;2.20;1.63;;;21.20;8.40;;;;;;5113875;28;20763;-54
2023/06/12 06:47:59;;;;;;;2.97;1.77;;;21.30;20.10;;;;;;5112582;28;20434;-54
2023/06/12 06:50:25;;;;;;;2.30;1.80;;;21.40;20.80;;;;;;5111875;28;20761;-53
2023/06/12 06:52:54;;;;;;;1.92;1.60;;;21.60;5.70;;;;;;5110646;28;20424;-51
2023/06/12 06:55:21;;;;;;;1.97;1.67;;;21.70;1.00;;;;;;5113815;28;20801;-55
2023/06/12 06:57:50;;;;;;;1.80;1.40;;;21.90;1.00;;;;;;5107030;28;20434;-52
2023/06/12 07:00:20;;;;;;;1.90;1.40;;;21.90;1.00;;;;;;5109951;28;20819;-52
2023/06/12 07:02:47;;;;;;;2.05;1.40;;;22.00;1.00;;;;;;5101784;28;20502;-54
2023/06/12 07:05:15;;;;;;;1.90;1.50;;;22.20;1.00;;;;;;5093168;28;20433;-51
2023/06/12 07:07:42;;;;;;;2.38;1.60;;;22.40;1.00;;;;;;5093089;28;20442;-55
2023/06/12 07:10:11;;;;;;;2.47;1.40;;;22.50;1.00;;;;;;5093197;28;20432;-54
2023/06/12 07:12:38;;;;;;;1.60;1.30;;;22.50;1.00;;;;;;5093912;28;20770;-52
2023/06/12 07:15:06;;;;;;;2.27;1.30;;;22.60;1.00;;;;;;5113613;28;20428;-53
2023/06/12 07:17:33;;;;;;;2.10;1.60;;;22.60;1.00;;;;;;5093302;28;20570;-52
2023/06/12 07:20:01;;;;;;;1.55;1.30;;;22.60;1.00;;;;;;5092184;28;20429;-55
2023/06/12 07:22:28;;;;;;;1.50;1.40;;;22.60;1.00;;;;;;5100281;28;20435;-54
2023/06/12 07:24:55;;;;;;;2.13;1.73;;;22.60;1.00;;;;;;5113021;28;20520;-53
2023/06/12 07:27:24;;;;;;;2.90;1.98;;;22.80;1.00;;;;;;5098942;28;20434;-53
2023/06/12 07:29:51;;;;;;;2.00;1.40;;;22.90;1.00;;;;;;5112100;28;20497;-53
2023/06/12 07:32:18;;;;;;;1.60;1.40;;;23.00;1.00;;;;;;5112281;28;20681;-53
2023/06/12 07:34:45;;;;;;;2.30;1.65;;;23.00;1.00;;;;;;5094405;28;20445;-53
2023/06/12 07:37:12;;;;;;;1.50;1.40;;;23.00;1.00;;;;;;5090090;28;21023;-54
2023/06/12 07:39:39;;;;;;;1.83;1.67;;;23.00;1.00;;;;;;5103522;28;20432;-52
2023/06/12 07:42:07;;;;;;;1.80;1.60;;;23.10;1.00;;;;;;5093219;28;20445;-53
2023/06/12 07:44:37;;;;;;;2.00;1.50;;;23.00;1.00;;;;;;5092274;28;20441;-56
2023/06/12 07:47:04;;;;;;;1.90;1.35;;;22.90;1.00;;;;;;5093053;28;20497;-52
2023/06/12 07:49:31;;;;;;;2.15;1.60;;;22.90;1.00;;;;;;5103958;28;20435;-58
2023/06/12 07:51:58;;;;;;;2.80;1.40;;;22.90;1.00;;;;;;5110263;28;20416;-51
2023/06/12 07:54:25;;;;;;;2.40;1.60;;;23.10;1.00;;;;;;5089554;28;20582;-55
2023/06/12 07:56:53;;;;;;;2.25;1.70;;;23.20;1.00;;;;;;5092219;28;20800;-53
2023/06/12 07:59:20;;;;;;;2.10;1.67;;;23.30;1.00;;;;;;5097342;28;20447;-52
2023/06/12 08:01:49;;;;;;;1.70;1.40;;;23.40;1.00;;;;;;5111701;28;20462;-54
2023/06/12 08:04:16;;;;;;;2.88;1.40;;;23.40;1.00;;;;;;5112419;28;20493;-49
2023/06/12 08:06:44;;;;;;;2.20;1.30;;;23.30;1.00;;;;;;5093879;28;20914;-59
2023/06/12 08:09:11;;;;;;;3.00;1.77;;;23.50;1.00;;;;;;5093837;28;20459;-58
2023/06/12 08:11:39;;;;;;;1.50;1.30;;;23.80;1.00;;;;;;5094281;28;20421;-58
2023/06/12 08:14:06;;;;;;;1.60;1.40;;;23.90;1.00;;;;;;5104681;28;20448;-59
2023/06/12 08:16:33;;;;;;;2.30;1.60;;;23.80;1.00;;;;;;5091989;28;20924;-59
2023/06/12 08:19:01;;;;;;;2.20;1.40;;;23.70;1.00;;;;;;5090054;28;20860;-59
2023/06/12 08:21:28;;;;;;;1.40;1.20;;;24.00;1.00;;;;;;5096693;28;20522;-59
2023/06/12 08:23:55;;;;;;;1.80;1.30;;;24.30;1.00;;;;;;5112648;28;20420;-59
2023/06/12 08:26:24;;;;;;;1.60;1.10;;;24.50;1.00;;;;;;5112017;28;20789;-59
2023/06/12 08:28:51;;;;;;;1.80;1.20;;;24.30;1.00;;;;;;5113425;28;20863;-58
2023/06/12 08:31:18;;;;;;;1.60;1.20;;;24.50;1.00;;;;;;5112690;28;20424;-59
2023/06/12 08:33:45;;;;;;;1.73;1.20;;;24.60;1.00;;;;;;5104105;28;20494;-62
2023/06/12 08:36:13;;;;;;;1.67;1.25;;;24.80;1.00;;;;;;5093128;28;20433;-58
2023/06/12 08:38:40;;;;;;;2.67;1.95;;;25.00;1.00;;;;;;5103795;28;20428;-58
2023/06/12 08:41:08;;;;;;;2.15;1.70;;;25.00;1.00;;;;;;5104054;28;20659;-57
2023/06/12 08:43:35;;;;;;;1.90;1.70;;;24.90;1.00;;;;;;5101203;28;20436;-58
2023/06/12 08:46:04;;;;;;;1.80;1.70;;;24.90;1.00;;;;;;5095050;28;20440;-58
2023/06/12 08:48:31;;;;;;;2.35;1.30;;;24.60;1.00;;;;;;5100973;28;20477;-58
2023/06/12 08:50:59;;;;;;;1.90;1.40;;;24.60;1.00;;;;;;5111850;28;20484;-58
2023/06/12 08:53:28;;;;;;;1.70;1.30;;;24.90;1.00;;;;;;5102109;28;20485;-58
2023/06/12 08:55:56;;;;;;;2.42;1.30;;;25.00;1.00;;;;;;5100860;28;20504;-58
2023/06/12 08:58:23;;;;;;;1.70;1.40;;;25.00;1.00;;;;;;5110539;28;20447;-59
2023/06/12 09:00:50;;;;;;;2.80;1.20;;;25.10;1.00;;;;;;5098925;28;20496;-58
2023/06/12 09:03:17;;;;;;;1.27;1.05;;;25.10;1.00;;;;;;5093025;28;20445;-62
2023/06/12 09:05:46;;;;;;;1.80;1.40;;;25.20;1.00;;;;;;5091350;28;20418;-60
2023/06/12 09:08:13;;;;;;;1.83;1.40;;;25.20;1.00;;;;;;5090241;28;20437;-59
2023/06/12 09:10:42;;;;;;;1.95;1.23;;;25.30;1.00;;;;;;5089919;28;20770;-59
2023/06/12 09:13:10;;;;;;;1.40;1.20;;;25.50;1.00;;;;;;5099766;28;20430;-59
2023/06/12 09:15:38;;;;;;;1.80;1.30;;;25.70;1.00;;;;;;5112980;28;20422;-59
2023/06/12 09:18:08;;;;;;;1.40;1.20;;;25.70;1.00;;;;;;5101142;28;20472;-60
2023/06/12 09:20:36;;;;;;;1.70;1.27;;;25.80;1.00;;;;;;5096069;28;20427;-60
2023/06/12 09:23:05;;;;;;;1.75;1.20;;;25.60;1.00;;;;;;5100415;28;20486;-60
2023/06/12 09:25:35;;;;;;;2.75;1.30;;;25.70;1.00;;;;;;5092852;28;20852;-60
2023/06/12 09:28:04;;;;;;;2.40;1.20;;;25.90;1.00;;;;;;5093671;28;20806;-60
2023/06/12 09:30:32;;;;;;;4.40;4.00;;;26.00;1.00;;;;;;5094374;28;20469;-58
2023/06/12 09:33:01;;;;;;;1.80;1.20;;;26.10;1.00;;;;;;5097007;28;20433;-59
2023/06/12 09:35:28;;;;;;;1.60;1.23;;;26.20;1.00;;;;;;5091191;28;20447;-60
2023/06/12 09:37:57;;;;;;;1.30;1.20;;;26.40;1.00;;;;;;5099747;28;20458;-59
2023/06/12 09:40:23;;;;;;;2.70;1.20;;;26.40;1.00;;;;;;5100373;28;20543;-60
2023/06/12 09:42:51;;;;;;;1.70;1.25;;;26.50;1.00;;;;;;5095474;28;20434;-60
2023/06/12 09:45:23;;;;;;;1.90;1.30;;;26.60;1.00;;;;;;5095799;28;20441;-61
2023/06/12 09:47:55;;;;;;;1.77;1.10;;;26.50;1.00;;;;;;5094918;28;20858;-58
2023/06/12 09:50:23;;;;;;;2.00;1.40;;;26.60;1.00;;;;;;5094665;28;20430;-60
2023/06/12 09:52:50;;;;;;;1.52;1.30;;;26.60;1.00;;;;;;5097473;28;20430;-59
2023/06/12 09:55:18;;;;;;;1.70;1.10;;;26.70;1.00;;;;;;5096290;28;20423;-59
2023/06/12 09:57:50;;;;;;;1.42;1.20;;;26.70;1.00;;;;;;5091833;28;20887;-58
2023/06/12 10:00:20;;;;;;;2.10;1.40;;;26.50;1.00;;;;;;5096813;28;20430;-60
2023/06/12 10:02:55;;;;;;;1.60;1.30;;;26.30;1.00;;;;;;5090974;28;20541;-60
2023/06/12 10:05:25;;;;;;;1.70;1.20;;;26.50;1.00;;;;;;5088418;28;20706;-60
2023/06/12 10:07:54;;;;;;;1.80;1.20;;;26.70;1.00;;;;;;5093070;28;20440;-61
2023/06/12 10:10:23;;;;;;;1.50;1.20;;;27.10;1.00;;;;;;5092172;28;20442;-60
2023/06/12 10:12:52;;;;;;;2.03;1.20;;;27.30;1.00;;;;;;5093713;28;20428;-61
2023/06/12 10:15:21;;;;;;;1.40;1.30;;;27.60;1.00;;;;;;5098959;28;20535;-61
2023/06/12 10:17:51;;;;;;;1.55;1.15;;;27.70;1.00;;;;;;5107362;28;20738;-58
2023/06/12 10:20:20;;;;;;;2.08;1.55;;;27.70;1.00;;;;;;5109533;28;20428;-60
2023/06/12 10:22:47;;;;;;;1.30;1.20;;;27.50;1.00;;;;;;5109099;28;20995;-60
2023/06/12 10:25:16;;;;;;;1.70;1.30;;;27.30;1.00;;;;;;5108721;28;20730;-60
2023/06/12 10:27:45;;;;;;;1.40;1.10;;;27.40;1.00;;;;;;5106001;28;20426;-60
2023/06/12 10:30:14;;;;;;;1.70;1.20;;;27.20;1.00;;;;;;5096390;28;20429;-60
2023/06/12 10:32:44;;;;;;;1.30;1.20;;;27.00;1.00;;;;;;5090548;28;20868;-60
2023/06/12 10:35:12;;;;;;;2.07;1.33;;;26.90;1.00;;;;;;5105057;28;20844;-61
2023/06/12 10:37:46;;;;;;;1.70;1.40;;;27.20;1.00;;;;;;5104580;28;20475;-60
2023/06/12 10:40:15;;;;;;;2.53;1.40;;;27.60;1.00;;;;;;5096734;28;20438;-60
2023/06/12 10:42:44;;;;;;;1.90;1.30;;;27.60;1.00;;;;;;5098768;28;20433;-60
2023/06/12 10:45:30;;;;;;;1.70;1.40;;;27.90;1.00;;;;;;5102459;28;20958;-60
2023/06/12 10:48:12;;;;;;;2.90;1.20;;;27.70;1.00;;;;;;5113158;28;20696;-60
2023/06/12 10:50:41;;;;;;;4.00;1.20;;;28.10;1.00;;;;;;5094442;28;20436;-60
2023/06/12 10:53:11;;;;;;;1.30;1.20;;;28.00;1.00;;;;;;5091090;28;20616;-60
2023/06/12 10:55:38;;;;;;;1.67;1.38;;;28.10;1.00;;;;;;5091596;28;20495;-61
2023/06/12 10:58:07;;;;;;;2.83;1.20;;;28.40;1.00;;;;;;5091529;28;20425;-62
2023/06/12 11:00:36;;;;;;;1.70;1.10;;;28.40;1.00;;;;;;5097518;28;20512;-62
2023/06/12 11:03:06;;;;;;;2.50;1.20;;;28.80;1.00;;;;;;5113380;28;20518;-61
2023/06/12 11:05:35;;;;;;;1.35;1.10;;;29.40;1.00;;;;;;5112826;28;20868;-61
2023/06/12 11:08:03;;;;;;;1.65;1.20;;;29.40;1.00;;;;;;5111874;28;20428;-60
2023/06/12 11:10:31;;;;;;;1.67;1.20;;;29.70;1.00;;;;;;5093500;28;20438;-60
2023/06/12 11:12:59;;;;;;;1.80;1.30;;;29.50;1.00;;;;;;5098668;28;20802;-60
2023/06/12 11:15:26;;;;;;;3.10;1.17;;;29.70;1.00;;;;;;5111119;28;20413;-61
2023/06/12 11:17:54;;;;;;;1.40;1.20;;;30.00;1.00;;;;;;5114467;28;20603;-61
2023/06/12 11:20:23;;;;;;;19.63;17.58;;;29.80;1.00;;;;;;5114253;28;20424;-61
2023/06/12 11:22:58;;;;;;;1.90;1.60;;;29.70;1.00;;;;;;5112460;28;20870;-61
2023/06/12 11:25:25;;;;;;;1.45;1.20;;;29.90;1.00;;;;;;5114452;28;20424;-61
2023/06/12 11:27:53;;;;;;;1.70;1.40;;;29.70;1.00;;;;;;5113322;28;20426;-61
2023/06/12 11:30:21;;;;;;;3.20;1.30;;;29.90;1.00;;;;;;5111731;28;20542;-61
2023/06/12 11:32:48;;;;;;;1.80;1.20;;;30.00;1.00;;;;;;5113882;28;20439;-62
2023/06/12 11:35:16;;;;;;;3.00;1.20;;;30.00;1.00;;;;;;5113623;28;20721;-61
2023/06/12 11:37:44;;;;;;;1.70;1.30;;;30.00;1.00;;;;;;5110943;28;20439;-61
2023/06/12 11:40:14;;;;;;;1.50;1.20;;;29.70;1.00;;;;;;5113490;28;20493;-61
2023/06/12 11:42:43;;;;;;;1.98;1.13;;;29.60;1.00;;;;;;5111241;28;20412;-63
2023/06/12 11:45:12;;;;;;;1.20;1.10;;;29.40;1.00;;;;;;5111201;28;20420;-62
2023/06/12 11:47:40;;;;;;;2.50;1.20;;;29.70;1.00;;;;;;5111410;28;20455;-61
2023/06/12 11:50:09;;;;;;;1.50;1.20;;;30.30;1.00;;;;;;5112773;28;20428;-62
2023/06/12 11:52:37;;;;;;;4.33;1.20;;;30.80;1.00;;;;;;5109513;28;20420;-61
2023/06/12 11:55:08;;;;;;;1.13;1.00;;;31.20;1.00;;;;;;5098515;28;20430;-60
2023/06/12 11:57:36;;;;;;;1.20;1.08;;;30.90;1.00;;;;;;5098666;28;20480;-61
2023/06/12 12:00:09;;;;;;;1.30;1.10;;;31.00;1.00;;;;;;5095663;28;20430;-63
2023/06/12 12:02:39;;;;;;;1.20;1.10;;;30.50;1.00;;;;;;5092354;28;20729;-64
2023/06/12 12:05:09;;;;;;;1.55;1.10;;;30.90;1.00;;;;;;5100655;28;20493;-63
2023/06/12 12:07:38;;;;;;;2.50;1.40;;;30.90;1.00;;;;;;5107507;28;20436;-63
2023/06/12 12:10:11;;;;;;;1.90;1.10;;;31.10;1.00;;;;;;5104347;28;20437;-62
2023/06/12 12:12:45;;;;;;;1.83;1.10;;;30.90;1.00;;;;;;5090905;28;20867;-64
2023/06/12 12:15:13;;;;;;;1.70;1.10;;;31.00;1.00;;;;;;5099813;28;20428;-62
2023/06/12 12:17:41;;;;;;;1.52;1.00;;;31.00;1.00;;;;;;5109894;28;20511;-65
2023/06/12 12:20:15;;;;;;;1.30;1.10;;;30.80;1.00;;;;;;5111969;28;20420;-63
2023/06/12 12:22:43;;;;;;;1.92;1.20;;;30.20;1.00;;;;;;5113235;28;20416;-63
2023/06/12 12:25:16;;;;;;;1.50;1.30;;;29.50;1.00;;;;;;5095919;28;20433;-63
2023/06/12 12:27:45;;;;;;;1.60;1.20;;;29.40;1.00;;;;;;5093686;28;20839;-61
2023/06/12 12:30:15;;;;;;;1.63;1.23;;;29.80;1.00;;;;;;5110549;28;20428;-64
2023/06/12 12:32:44;;;;;;;1.70;1.10;;;30.20;1.00;;;;;;5096830;28;20441;-62
2023/06/12 12:35:11;;;;;;;1.30;1.20;;;30.70;1.00;;;;;;5098255;28;20437;-63
2023/06/12 12:37:38;;;;;;;1.20;1.10;;;31.10;1.00;;;;;;5092601;28;20471;-64
2023/06/12 12:40:09;;;;;;;1.60;1.20;;;31.30;1.00;;;;;;5092996;28;20414;-64
2023/06/12 12:42:38;;;;;;;1.30;1.10;;;31.20;1.00;;;;;;5091795;28;20426;-63
2023/06/12 12:45:08;;;;;;;1.50;1.10;;;31.40;1.00;;;;;;5093029;28;20448;-65
2023/06/12 12:47:35;;;;;;;2.65;1.13;;;31.50;1.00;;;;;;5093460;28;20434;-62
2023/06/12 12:50:03;;;;;;;1.35;1.17;;;31.80;1.00;;;;;;5090688;28;20425;-63
2023/06/12 12:52:30;;;;;;;1.50;1.20;;;31.90;1.00;;;;;;5091427;28;20443;-62
2023/06/12 12:54:57;;;;;;;2.00;1.10;;;31.90;1.00;;;;;;5090107;28;20475;-65
2023/06/12 12:57:24;;;;;;;1.40;1.10;;;32.00;1.00;;;;;;5090187;28;20787;-63
2023/06/12 12:59:53;;;;;;;1.20;1.10;;;32.00;1.00;;;;;;5093265;28;20429;-64